createdAt,value
2023-06-04T00:00:36.047Z,77.93
2023-06-04T00:01:36.043Z,78.13
2023-06-04T00:02:36.423Z,78.13
2023-06-04T00:03:36.175Z,78.34
2023-06-04T00:04:36.073Z,78.34
2023-06-04T00:05:36.031Z,78.17
2023-06-04T00:06:35.977Z,78.38
2023-06-04T00:07:36.057Z,78.58
2023-06-04T00:08:35.971Z,78.68
2023-06-04T00:09:36.213Z,78.58
2023-06-04T00:10:35.927Z,78.78
2023-06-04T00:11:35.977Z,78.78
2023-06-04T00:12:35.890Z,78.88
2023-06-04T00:13:35.941Z,78.88
2023-06-04T00:14:35.897Z,78.99
2023-06-04T00:15:35.882Z,79.29
2023-06-04T00:16:36.195Z,79.19
2023-06-04T00:17:35.858Z,79.60
2023-06-04T00:18:35.837Z,79.70
2023-06-04T00:19:35.912Z,79.60
2023-06-04T00:20:35.837Z,79.60
2023-06-04T00:21:35.805Z,79.74
2023-06-04T00:22:35.804Z,79.84
2023-06-04T00:23:36.127Z,79.94
2023-06-04T00:24:35.785Z,79.84
2023-06-04T00:25:35.804Z,79.64
2023-06-04T00:26:35.773Z,79.94
2023-06-04T00:27:35.734Z,79.94
2023-06-04T00:28:35.761Z,79.84
2023-06-04T00:29:35.719Z,79.74
2023-06-04T00:30:36.039Z,79.94
2023-06-04T00:31:35.758Z,79.84
2023-06-04T00:32:35.784Z,79.74
2023-06-04T00:33:35.709Z,79.64
2023-06-04T00:34:35.657Z,79.94
2023-06-04T00:35:35.677Z,79.94
2023-06-04T00:36:35.643Z,80.15
2023-06-04T00:37:35.962Z,80.25
2023-06-04T00:38:35.672Z,80.46
2023-06-04T00:39:35.640Z,80.69
2023-06-04T00:40:35.637Z,80.49
2023-06-04T00:41:35.596Z,80.69
2023-06-04T00:42:35.583Z,80.90
2023-06-04T00:43:35.621Z,80.90
2023-06-04T00:44:35.899Z,80.90
2023-06-04T00:45:35.602Z,80.90
2023-06-04T00:46:35.579Z,81.31
2023-06-04T00:47:35.557Z,81.51
2023-06-04T00:48:35.535Z,81.51
2023-06-04T00:49:35.576Z,81.31
2023-06-04T00:50:35.518Z,81.41
2023-06-04T00:51:35.482Z,81.41
2023-06-04T00:52:35.477Z,81.51
2023-06-04T00:53:35.539Z,81.62
2023-06-04T00:54:35.445Z,81.51
2023-06-04T00:55:35.482Z,81.51
2023-06-04T00:56:35.419Z,81.72
2023-06-04T00:57:35.704Z,81.72
2023-06-04T00:58:35.435Z,81.82
2023-06-04T00:59:35.406Z,81.82
2023-06-04T01:00:35.400Z,81.72
2023-06-04T01:01:35.456Z,81.72
2023-06-04T01:02:35.433Z,81.72
2023-06-04T01:03:35.396Z,81.93
2023-06-04T01:04:35.374Z,81.82
2023-06-04T01:05:35.612Z,81.96
2023-06-04T01:06:35.324Z,82.03
2023-06-04T01:07:35.355Z,81.86
2023-06-04T01:08:35.306Z,81.96
2023-06-04T01:09:35.600Z,82.37
2023-06-04T01:10:35.298Z,82.37
2023-06-04T01:11:35.266Z,82.37
2023-06-04T01:12:35.298Z,82.37
2023-06-04T01:13:35.305Z,82.57
2023-06-04T01:14:35.239Z,82.57
2023-06-04T01:15:35.256Z,82.57
2023-06-04T01:16:35.317Z,82.48
2023-06-04T01:17:35.245Z,82.37
2023-06-04T01:18:35.213Z,82.27
2023-06-04T01:19:35.232Z,82.48
2023-06-04T01:20:35.196Z,82.57
2023-06-04T01:21:35.463Z,82.89
2023-06-04T01:22:35.174Z,82.78
2023-06-04T01:23:35.388Z,82.68
2023-06-04T01:24:35.135Z,82.68
2023-06-04T01:25:35.197Z,82.78
2023-06-04T01:26:35.128Z,82.89
2023-06-04T01:27:35.099Z,82.98
2023-06-04T01:28:35.363Z,82.92
2023-06-04T01:29:35.090Z,82.82
2023-06-04T01:30:35.066Z,82.92
2023-06-04T01:31:35.144Z,83.23
2023-06-04T01:32:35.130Z,83.33
2023-06-04T01:33:35.037Z,83.44
2023-06-04T01:34:35.046Z,83.54
2023-06-04T01:35:35.319Z,83.64
2023-06-04T01:36:35.014Z,83.74
2023-06-04T01:37:35.043Z,83.64
2023-06-04T01:38:34.996Z,83.95
2023-06-04T01:39:34.953Z,84.05
2023-06-04T01:40:34.980Z,83.95
2023-06-04T01:41:34.955Z,83.74
2023-06-04T01:42:35.230Z,83.84
2023-06-04T01:43:34.978Z,84.15
2023-06-04T01:44:34.930Z,84.05
2023-06-04T01:45:34.908Z,84.29
2023-06-04T01:46:34.976Z,84.50
2023-06-04T01:47:34.909Z,84.70
2023-06-04T01:48:34.880Z,84.80
2023-06-04T01:49:35.229Z,85.01
2023-06-04T01:50:34.869Z,85.31
2023-06-04T01:51:34.848Z,85.31
2023-06-04T01:52:34.835Z,85.31
2023-06-04T01:53:34.818Z,85.42
2023-06-04T01:54:34.857Z,85.52
2023-06-04T01:55:35.019Z,85.77
2023-06-04T01:56:35.096Z,86.07
2023-06-04T01:57:34.772Z,86.18
2023-06-04T01:58:34.778Z,86.18
2023-06-04T01:59:34.754Z,86.18
2023-06-04T02:00:34.790Z,86.18
2023-06-04T02:01:34.817Z,86.28
2023-06-04T02:02:34.819Z,86.28
2023-06-04T02:03:35.026Z,86.28
2023-06-04T02:04:34.717Z,86.28
2023-06-04T02:05:34.689Z,86.48
2023-06-04T02:06:34.695Z,86.48
2023-06-04T02:07:34.720Z,86.48
2023-06-04T02:08:34.664Z,86.69
2023-06-04T02:09:34.647Z,86.79
2023-06-04T02:10:34.933Z,86.79
2023-06-04T02:11:34.663Z,87.14
2023-06-04T02:12:34.635Z,87.14
2023-06-04T02:13:34.647Z,87.24
2023-06-04T02:14:34.632Z,87.24
2023-06-04T02:15:34.596Z,87.34
2023-06-04T02:16:34.618Z,87.45
2023-06-04T02:17:34.886Z,87.45
2023-06-04T02:18:34.552Z,87.65
2023-06-04T02:19:34.607Z,87.55
2023-06-04T02:20:34.531Z,87.55
2023-06-04T02:21:34.512Z,87.76
2023-06-04T02:22:34.528Z,87.96
2023-06-04T02:23:34.532Z,87.76
2023-06-04T02:24:34.800Z,87.76
2023-06-04T02:25:34.512Z,87.85
2023-06-04T02:26:34.468Z,87.85
2023-06-04T02:27:34.475Z,87.76
2023-06-04T02:28:34.456Z,87.55
2023-06-04T02:29:34.450Z,87.45
2023-06-04T02:30:34.437Z,87.55
2023-06-04T02:31:34.736Z,87.45
2023-06-04T02:32:34.476Z,87.45
2023-06-04T02:33:34.392Z,87.45
2023-06-04T02:34:34.406Z,87.45
2023-06-04T02:35:34.369Z,87.45
2023-06-04T02:36:34.372Z,87.55
2023-06-04T02:37:34.381Z,87.55
2023-06-04T02:38:34.616Z,87.45
2023-06-04T02:39:34.335Z,87.70
2023-06-04T02:40:34.333Z,87.70
2023-06-04T02:41:34.297Z,87.70
2023-06-04T02:42:34.306Z,87.70
2023-06-04T02:43:34.325Z,87.90
2023-06-04T02:44:34.270Z,87.79
2023-06-04T02:45:34.606Z,87.79
2023-06-04T02:46:34.316Z,87.79
2023-06-04T02:47:34.410Z,88.10
2023-06-04T02:48:34.254Z,88.10
2023-06-04T02:49:34.322Z,88.31
2023-06-04T02:50:34.225Z,88.31
2023-06-04T02:51:34.196Z,88.45
2023-06-04T02:52:34.470Z,88.56
2023-06-04T02:53:34.174Z,88.56
2023-06-04T02:54:34.176Z,88.56
2023-06-04T02:55:34.199Z,88.76
2023-06-04T02:56:34.164Z,88.76
2023-06-04T02:57:34.133Z,88.86
2023-06-04T02:58:34.121Z,88.76
2023-06-04T02:59:34.398Z,88.76
2023-06-04T03:00:34.106Z,88.86
2023-06-04T03:01:34.178Z,89.07
2023-06-04T03:02:34.138Z,89.17
2023-06-04T03:03:34.109Z,89.37
2023-06-04T03:04:34.064Z,89.37
2023-06-04T03:05:34.245Z,89.42
2023-06-04T03:06:34.039Z,89.48
2023-06-04T03:07:34.095Z,89.69
2023-06-04T03:08:34.057Z,89.62
2023-06-04T03:09:34.017Z,89.52
2023-06-04T03:10:34.017Z,89.62
2023-06-04T03:11:33.976Z,89.72
2023-06-04T03:12:34.280Z,89.83
2023-06-04T03:13:33.991Z,90.14
2023-06-04T03:14:33.994Z,90.14
2023-06-04T03:15:33.973Z,90.24
2023-06-04T03:16:33.940Z,90.14
2023-06-04T03:17:33.937Z,90.24
2023-06-04T03:18:33.906Z,90.24
2023-06-04T03:19:34.227Z,90.24
2023-06-04T03:20:33.889Z,90.34
2023-06-04T03:21:33.896Z,90.44
2023-06-04T03:22:33.979Z,90.34
2023-06-04T03:23:33.888Z,90.34
2023-06-04T03:24:33.858Z,90.34
2023-06-04T03:25:33.870Z,90.34
2023-06-04T03:26:34.099Z,90.44
2023-06-04T03:27:33.861Z,90.44
2023-06-04T03:28:33.802Z,90.44
2023-06-04T03:29:33.824Z,90.44
2023-06-04T03:30:33.785Z,90.55
2023-06-04T03:31:33.911Z,90.44
2023-06-04T03:32:33.810Z,90.55
2023-06-04T03:33:34.032Z,90.65
2023-06-04T03:34:35.609Z,90.65
2023-06-04T03:35:33.733Z,90.85
2023-06-04T03:36:33.742Z,90.95
2023-06-04T03:37:33.841Z,90.95
2023-06-04T03:38:33.718Z,90.95
2023-06-04T03:39:33.691Z,90.95
2023-06-04T03:40:34.013Z,90.95
2023-06-04T03:41:33.662Z,90.95
2023-06-04T03:42:33.660Z,91.06
2023-06-04T03:43:33.700Z,91.16
2023-06-04T03:44:33.663Z,91.16
2023-06-04T03:45:33.670Z,91.27
2023-06-04T03:46:33.709Z,91.16
2023-06-04T03:47:34.998Z,91.16
2023-06-04T03:48:33.602Z,91.16
2023-06-04T03:49:33.635Z,91.16
2023-06-04T03:50:33.593Z,91.37
2023-06-04T03:51:33.556Z,91.16
2023-06-04T03:52:33.563Z,90.95
2023-06-04T03:53:33.552Z,90.75
2023-06-04T03:54:33.855Z,90.65
2023-06-04T03:55:33.850Z,90.40
2023-06-04T03:56:33.539Z,90.20
2023-06-04T03:57:33.548Z,90.09
2023-06-04T03:58:33.484Z,89.99
2023-06-04T03:59:33.483Z,89.78
2023-06-04T04:00:33.464Z,89.58
2023-06-04T04:01:33.802Z,89.37
2023-06-04T04:02:33.649Z,89.13
2023-06-04T04:03:33.486Z,89.13
2023-06-04T04:04:33.457Z,89.23
2023-06-04T04:05:33.441Z,89.03
2023-06-04T04:06:33.431Z,89.13
2023-06-04T04:07:33.428Z,89.03
2023-06-04T04:08:33.671Z,89.23
2023-06-04T04:09:33.389Z,89.03
2023-06-04T04:10:33.367Z,88.82
2023-06-04T04:11:33.358Z,88.72
2023-06-04T04:12:33.351Z,88.41
2023-06-04T04:13:33.386Z,88.27
2023-06-04T04:14:33.318Z,88.27
2023-06-04T04:15:33.305Z,88.06
2023-06-04T04:16:33.344Z,87.96
2023-06-04T04:17:33.325Z,87.96
2023-06-04T04:18:33.271Z,87.96
2023-06-04T04:19:33.340Z,87.76
2023-06-04T04:20:33.263Z,87.65
2023-06-04T04:21:33.532Z,87.55
2023-06-04T04:22:33.226Z,87.55
2023-06-04T04:23:33.253Z,87.55
2023-06-04T04:24:33.229Z,87.45
2023-06-04T04:25:33.285Z,87.24
2023-06-04T04:26:33.238Z,87.34
2023-06-04T04:27:33.207Z,87.34
2023-06-04T04:28:33.169Z,87.34
2023-06-04T04:29:33.156Z,87.41
2023-06-04T04:30:33.169Z,87.10
2023-06-04T04:31:33.440Z,87.10
2023-06-04T04:32:33.163Z,87.10
2023-06-04T04:33:33.422Z,86.79
2023-06-04T04:34:33.115Z,86.69
2023-06-04T04:35:33.121Z,86.48
2023-06-04T04:36:33.091Z,86.48
2023-06-04T04:37:33.121Z,86.24
2023-06-04T04:38:33.056Z,86.24
2023-06-04T04:39:33.064Z,86.24
2023-06-04T04:40:33.051Z,85.83
2023-06-04T04:41:33.027Z,85.63
2023-06-04T04:42:33.038Z,85.38
2023-06-04T04:43:33.069Z,84.87
2023-06-04T04:44:33.010Z,84.77
2023-06-04T04:45:33.274Z,84.87
2023-06-04T04:46:33.039Z,84.52
2023-06-04T04:47:32.995Z,84.42
2023-06-04T04:48:32.985Z,84.11
2023-06-04T04:49:32.983Z,84.22
2023-06-04T04:50:32.955Z,83.91
2023-06-04T04:51:32.922Z,83.60
2023-06-04T04:52:33.214Z,83.81
2023-06-04T04:53:32.896Z,83.70
2023-06-04T04:54:32.895Z,83.46
2023-06-04T04:55:32.924Z,83.87
2023-06-04T04:56:32.881Z,83.46
2023-06-04T04:57:32.881Z,83.66
2023-06-04T04:58:32.843Z,83.56
2023-06-04T04:59:33.139Z,82.95
2023-06-04T05:00:32.844Z,82.43
2023-06-04T05:01:32.909Z,82.54
2023-06-04T05:02:32.827Z,82.20
2023-06-04T05:03:32.810Z,82.29
2023-06-04T05:04:32.895Z,82.20
2023-06-04T05:05:32.813Z,82.29
2023-06-04T05:06:33.042Z,81.88
2023-06-04T05:07:32.793Z,81.99
2023-06-04T05:08:32.755Z,81.95
2023-06-04T05:09:32.732Z,81.65
2023-06-04T05:10:32.740Z,81.24
2023-06-04T05:11:32.711Z,81.34
2023-06-04T05:12:32.705Z,81.44
2023-06-04T05:13:33.011Z,81.65
2023-06-04T05:14:32.767Z,81.03
2023-06-04T05:15:32.673Z,80.69
2023-06-04T05:16:32.681Z,80.58
2023-06-04T05:17:32.703Z,80.38
2023-06-04T05:18:32.647Z,80.38
2023-06-04T05:19:32.674Z,80.99
2023-06-04T05:20:32.969Z,80.38
2023-06-04T05:21:32.602Z,80.14
2023-06-04T05:22:32.579Z,80.14
2023-06-04T05:23:32.628Z,80.04
2023-06-04T05:24:32.561Z,79.73
2023-06-04T05:25:32.588Z,79.52
2023-06-04T05:26:32.541Z,79.52
2023-06-04T05:27:32.842Z,79.08
2023-06-04T05:28:32.528Z,78.98
2023-06-04T05:29:32.520Z,78.57
2023-06-04T05:30:32.514Z,78.88
2023-06-04T05:31:32.615Z,78.77
2023-06-04T05:32:32.530Z,78.64
2023-06-04T05:33:32.471Z,78.43
2023-06-04T05:34:32.762Z,78.33
2023-06-04T05:35:32.455Z,78.33
2023-06-04T05:36:32.456Z,78.12
2023-06-04T05:37:32.487Z,78.23
2023-06-04T05:38:32.420Z,77.68
2023-06-04T05:39:32.421Z,77.68
2023-06-04T05:40:32.425Z,77.78
2023-06-04T05:41:32.681Z,77.89
2023-06-04T05:42:32.382Z,77.58
2023-06-04T05:43:32.410Z,77.95
2023-06-04T05:44:32.362Z,77.64
2023-06-04T05:45:32.348Z,77.14
2023-06-04T05:46:32.395Z,77.34
2023-06-04T05:47:32.388Z,77.14
2023-06-04T05:48:32.604Z,77.30
2023-06-04T05:49:32.359Z,77.10
2023-06-04T05:50:32.302Z,76.90
2023-06-04T05:51:32.303Z,76.18
2023-06-04T05:52:32.272Z,75.78
2023-06-04T05:53:32.264Z,75.74
2023-06-04T05:54:32.293Z,75.64
2023-06-04T05:55:32.672Z,75.64
2023-06-04T05:56:32.228Z,75.13
2023-06-04T05:57:32.261Z,75.13
2023-06-04T05:58:32.236Z,74.99
2023-06-04T05:59:32.199Z,74.38
2023-06-04T06:00:32.190Z,74.58
2023-06-04T06:01:32.256Z,74.28
2023-06-04T06:02:32.776Z,73.97
2023-06-04T06:03:32.281Z,73.23
2023-06-04T06:04:32.324Z,73.23
2023-06-04T06:05:32.177Z,72.92
2023-06-04T06:06:32.121Z,72.72
2023-06-04T06:07:32.247Z,72.28
2023-06-04T06:08:32.123Z,71.67
2023-06-04T06:09:32.525Z,71.57
2023-06-04T06:10:32.097Z,70.96
2023-06-04T06:11:32.066Z,70.31
2023-06-04T06:12:32.067Z,70.21
2023-06-04T06:13:32.466Z,69.47
2023-06-04T06:14:32.225Z,69.13
2023-06-04T06:15:32.116Z,69.03
2023-06-04T06:16:32.359Z,68.22
2023-06-04T06:17:32.044Z,68.08
2023-06-04T06:18:32.018Z,67.68
2023-06-04T06:19:32.047Z,67.21
2023-06-04T06:20:32.010Z,65.50
2023-06-04T06:21:31.977Z,62.98
2023-06-04T06:22:31.971Z,60.26
2023-06-04T06:23:32.438Z,58.29
2023-06-04T06:24:31.926Z,57.43
2023-06-04T06:25:31.999Z,56.60
2023-06-04T06:26:31.913Z,56.49
2023-06-04T06:27:31.909Z,56.29
2023-06-04T06:28:31.891Z,56.62
2023-06-04T06:29:31.886Z,57.63
2023-06-04T06:30:32.279Z,56.92
2023-06-04T06:31:31.946Z,56.37
2023-06-04T06:32:31.883Z,54.58
2023-06-04T06:33:31.846Z,53.22
2023-06-04T06:34:31.855Z,52.47
2023-06-04T06:35:31.854Z,51.01
2023-06-04T06:36:31.822Z,49.24
2023-06-04T06:37:32.129Z,47.72
2023-06-04T06:38:31.798Z,46.89
2023-06-04T06:39:31.785Z,46.80
2023-06-04T06:40:31.804Z,46.31
2023-06-04T06:41:31.765Z,46.69
2023-06-04T06:42:31.749Z,46.75
2023-06-04T06:43:31.881Z,45.95
2023-06-04T06:44:32.025Z,45.43
2023-06-04T06:45:31.722Z,45.21
2023-06-04T06:46:31.737Z,44.61
2023-06-04T06:47:31.743Z,45.21
2023-06-04T06:48:31.690Z,45.47
2023-06-04T06:49:31.725Z,47.14
2023-06-04T06:50:31.661Z,46.84
2023-06-04T06:51:31.973Z,46.07
2023-06-04T06:52:33.696Z,45.75
2023-06-04T06:53:31.655Z,45.51
2023-06-04T06:54:31.629Z,44.59
2023-06-04T06:55:31.654Z,43.97
2023-06-04T06:56:31.871Z,43.45
2023-06-04T06:57:31.619Z,42.81
2023-06-04T06:58:32.143Z,42.61
2023-06-04T06:59:31.570Z,42.53
2023-06-04T07:00:31.613Z,42.73
2023-06-04T07:01:31.674Z,42.81
2023-06-04T07:02:31.609Z,42.39
2023-06-04T07:03:31.580Z,42.19
2023-06-04T07:04:31.514Z,41.67
2023-06-04T07:05:31.974Z,41.16
2023-06-04T07:06:31.494Z,39.92
2023-06-04T07:07:31.538Z,39.92
2023-06-04T07:08:31.491Z,39.92
2023-06-04T07:09:31.480Z,39.73
2023-06-04T07:10:31.467Z,40.14
2023-06-04T07:11:31.474Z,41.00
2023-06-04T07:12:31.758Z,41.91
2023-06-04T07:13:31.482Z,41.50
2023-06-04T07:14:31.442Z,41.38
2023-06-04T07:15:31.448Z,40.46
2023-06-04T07:16:31.432Z,40.36
2023-06-04T07:17:31.421Z,40.76
2023-06-04T07:18:31.434Z,40.28
2023-06-04T07:19:31.819Z,41.06
2023-06-04T07:20:31.397Z,40.74
2023-06-04T07:21:31.324Z,40.03
2023-06-04T07:22:31.313Z,40.24
2023-06-04T07:23:31.357Z,40.60
2023-06-04T07:24:31.326Z,40.26
2023-06-04T07:25:31.329Z,40.34
2023-06-04T07:26:33.364Z,39.83
2023-06-04T07:27:31.262Z,38.90
2023-06-04T07:28:31.389Z,39.07
2023-06-04T07:29:31.255Z,38.79
2023-06-04T07:30:31.235Z,38.81
2023-06-04T07:31:31.275Z,39.01
2023-06-04T07:32:31.312Z,38.78
2023-06-04T07:33:31.682Z,38.48
2023-06-04T07:34:31.216Z,38.12
2023-06-04T07:35:31.196Z,38.40
2023-06-04T07:36:31.209Z,37.90
2023-06-04T07:37:31.226Z,37.23
2023-06-04T07:38:31.150Z,37.11
2023-06-04T07:39:31.178Z,39.43
2023-06-04T07:40:31.498Z,39.59
2023-06-04T07:41:31.147Z,40.60
2023-06-04T07:42:31.133Z,40.88
2023-06-04T07:43:31.125Z,40.80
2023-06-04T07:44:31.086Z,39.47
2023-06-04T07:45:33.147Z,38.16
2023-06-04T07:46:31.136Z,38.14
2023-06-04T07:47:31.574Z,37.04
2023-06-04T07:48:31.031Z,37.52
2023-06-04T07:49:31.075Z,36.11
2023-06-04T07:50:33.932Z,36.53
2023-06-04T07:51:31.022Z,36.33
2023-06-04T07:52:30.990Z,36.38
2023-06-04T07:53:31.007Z,37.60
2023-06-04T07:54:31.268Z,37.58
2023-06-04T07:55:31.014Z,37.79
2023-06-04T07:56:30.953Z,38.15
2023-06-04T07:57:30.955Z,38.35
2023-06-04T07:58:30.935Z,38.67
2023-06-04T07:59:30.937Z,39.56
2023-06-04T08:00:30.948Z,39.04
2023-06-04T08:01:31.279Z,39.86
2023-06-04T08:02:30.997Z,39.04
2023-06-04T08:03:31.072Z,38.33
2023-06-04T08:04:31.025Z,38.29
2023-06-04T08:05:30.895Z,38.91
2023-06-04T08:06:30.837Z,38.82
2023-06-04T08:07:30.890Z,39.92
2023-06-04T08:08:31.273Z,38.93
2023-06-04T08:09:30.841Z,38.71
2023-06-04T08:10:30.806Z,37.98
2023-06-04T08:11:30.801Z,36.58
2023-06-04T08:12:30.851Z,36.58
2023-06-04T08:13:30.828Z,36.98
2023-06-04T08:14:30.793Z,37.79
2023-06-04T08:15:30.792Z,38.89
2023-06-04T08:16:30.791Z,38.71
2023-06-04T08:17:30.761Z,39.21
2023-06-04T08:18:30.743Z,38.99
2023-06-04T08:19:30.767Z,38.45
2023-06-04T08:20:30.753Z,37.45
2023-06-04T08:21:31.162Z,37.46
2023-06-04T08:22:30.701Z,37.16
2023-06-04T08:23:30.764Z,36.77
2023-06-04T08:24:30.659Z,34.76
2023-06-04T08:25:30.747Z,33.87
2023-06-04T08:26:30.643Z,33.67
2023-06-04T08:27:30.663Z,34.88
2023-06-04T08:28:30.609Z,35.27
2023-06-04T08:29:30.685Z,33.90
2023-06-04T08:30:30.651Z,34.22
2023-06-04T08:31:30.662Z,33.52
2023-06-04T08:32:30.624Z,33.63
2023-06-04T08:33:30.587Z,33.67
2023-06-04T08:34:30.572Z,34.28
2023-06-04T08:35:30.569Z,35.01
2023-06-04T08:36:30.580Z,35.39
2023-06-04T08:37:30.585Z,36.07
2023-06-04T08:38:30.538Z,35.74
2023-06-04T08:39:30.974Z,34.73
2023-06-04T08:40:30.512Z,33.02
2023-06-04T08:41:30.500Z,32.11
2023-06-04T08:42:30.474Z,31.21
2023-06-04T08:43:30.522Z,31.13
2023-06-04T08:44:30.467Z,31.54
2023-06-04T08:45:30.465Z,31.76
2023-06-04T08:46:30.836Z,32.57
2023-06-04T08:47:30.459Z,33.18
2023-06-04T08:48:30.439Z,34.27
2023-06-04T08:49:30.458Z,32.93
2023-06-04T08:50:30.407Z,33.52
2023-06-04T08:51:30.386Z,31.81
2023-06-04T08:52:30.407Z,32.01
2023-06-04T08:53:30.957Z,33.29
2023-06-04T08:54:30.389Z,30.60
2023-06-04T08:55:30.443Z,30.72
2023-06-04T08:56:30.349Z,31.40
2023-06-04T08:57:30.380Z,32.18
2023-06-04T08:58:30.325Z,31.17
2023-06-04T08:59:30.343Z,30.97
2023-06-04T09:00:30.751Z,30.57
2023-06-04T09:01:30.337Z,29.69
2023-06-04T09:02:30.350Z,29.91
2023-06-04T09:03:30.277Z,29.54
2023-06-04T09:04:30.269Z,30.65
2023-06-04T09:05:30.241Z,32.45
2023-06-04T09:06:30.238Z,32.26
2023-06-04T09:07:30.622Z,31.74
2023-06-04T09:08:30.231Z,32.75
2023-06-04T09:09:30.269Z,31.77
2023-06-04T09:10:30.289Z,31.06
2023-06-04T09:11:30.193Z,31.84
2023-06-04T09:12:31.374Z,30.94
2023-06-04T09:13:30.267Z,30.96
2023-06-04T09:14:30.506Z,32.26
2023-06-04T09:15:30.156Z,30.96
2023-06-04T09:16:30.176Z,30.94
2023-06-04T09:17:30.157Z,30.94
2023-06-04T09:18:30.131Z,30.93
2023-06-04T09:19:30.209Z,30.82
2023-06-04T09:20:30.885Z,31.50
2023-06-04T09:21:30.551Z,31.80
2023-06-04T09:22:30.110Z,30.49
2023-06-04T09:23:30.093Z,30.89
2023-06-04T09:24:30.068Z,30.49
2023-06-04T09:25:30.073Z,29.98
2023-06-04T09:26:30.053Z,29.99
2023-06-04T09:27:30.032Z,29.60
2023-06-04T09:28:30.386Z,28.69
2023-06-04T09:29:30.039Z,28.90
2023-06-04T09:30:30.014Z,31.05
2023-06-04T09:31:30.112Z,30.56
2023-06-04T09:32:30.004Z,31.97
2023-06-04T09:33:29.993Z,32.07
2023-06-04T09:34:30.049Z,31.66
2023-06-04T09:35:30.438Z,31.73
2023-06-04T09:36:29.938Z,31.21
2023-06-04T09:37:29.994Z,29.72
2023-06-04T09:38:29.929Z,29.52
2023-06-04T09:39:29.902Z,28.53
2023-06-04T09:40:29.908Z,28.63
2023-06-04T09:41:29.881Z,28.64
2023-06-04T09:42:30.280Z,28.44
2023-06-04T09:43:29.926Z,28.53
2023-06-04T09:44:29.854Z,28.55
2023-06-04T09:45:29.862Z,29.14
2023-06-04T09:46:29.874Z,28.34
2023-06-04T09:47:29.856Z,28.25
2023-06-04T09:48:29.821Z,28.44
2023-06-04T09:49:30.157Z,27.85
2023-06-04T09:50:29.805Z,28.46
2023-06-04T09:51:29.788Z,28.47
2023-06-04T09:52:29.782Z,28.76
2023-06-04T09:53:31.635Z,27.67
2023-06-04T09:54:29.761Z,27.76
2023-06-04T09:55:29.838Z,28.06
2023-06-04T09:56:30.182Z,28.26
2023-06-04T09:57:30.525Z,27.76
2023-06-04T09:58:29.714Z,28.76
2023-06-04T09:59:29.690Z,28.44
2023-06-04T10:00:29.705Z,28.62
2023-06-04T10:01:29.724Z,27.51
2023-06-04T10:02:29.772Z,27.03
2023-06-04T10:03:31.181Z,27.62
2023-06-04T10:04:29.668Z,27.82
2023-06-04T10:05:29.637Z,27.61
2023-06-04T10:06:29.638Z,27.51
2023-06-04T10:07:29.661Z,27.59
2023-06-04T10:08:30.416Z,27.00
2023-06-04T10:09:30.858Z,26.39
2023-06-04T10:10:29.942Z,26.69
2023-06-04T10:11:29.600Z,27.10
2023-06-04T10:12:29.625Z,27.10
2023-06-04T10:13:29.616Z,27.62
2023-06-04T10:14:29.560Z,28.11
2023-06-04T10:15:29.561Z,27.39
2023-06-04T10:16:34.212Z,27.47
2023-06-04T10:17:29.565Z,26.20
2023-06-04T10:18:29.538Z,26.12
2023-06-04T10:19:29.584Z,26.93
2023-06-04T10:20:29.522Z,28.12
2023-06-04T10:21:29.506Z,27.51
2023-06-04T10:22:29.484Z,27.41
2023-06-04T10:23:29.804Z,27.68
2023-06-04T10:24:29.440Z,27.57
2023-06-04T10:25:29.582Z,25.89
2023-06-04T10:26:29.467Z,26.46
2023-06-04T10:27:29.442Z,26.56
2023-06-04T10:28:29.464Z,26.78
2023-06-04T10:29:29.427Z,26.59
2023-06-04T10:30:29.698Z,26.58
2023-06-04T10:31:29.478Z,26.99
2023-06-04T10:32:29.466Z,26.48
2023-06-04T10:33:29.401Z,26.18
2023-06-04T10:34:29.413Z,26.98
2023-06-04T10:35:29.350Z,26.79
2023-06-04T10:36:29.356Z,26.59
2023-06-04T10:37:29.713Z,26.29
2023-06-04T10:38:29.399Z,26.31
2023-06-04T10:39:29.319Z,26.43
2023-06-04T10:40:29.318Z,26.53
2023-06-04T10:41:29.324Z,27.23
2023-06-04T10:42:29.324Z,26.90
2023-06-04T10:43:29.323Z,25.80
2023-06-04T10:44:29.568Z,26.20
2023-06-04T10:45:29.249Z,26.29
2023-06-04T10:46:29.296Z,26.79
2023-06-04T10:47:29.232Z,26.59
2023-06-04T10:48:29.223Z,27.10
2023-06-04T10:49:29.317Z,26.70
2023-06-04T10:50:29.206Z,26.90
2023-06-04T10:51:29.518Z,26.79
2023-06-04T10:52:29.186Z,27.17
2023-06-04T10:53:29.170Z,27.08
2023-06-04T10:54:29.195Z,25.60
2023-06-04T10:55:29.247Z,26.39
2023-06-04T10:56:29.150Z,27.27
2023-06-04T10:57:29.147Z,26.79
2023-06-04T10:58:29.408Z,25.60
2023-06-04T10:59:29.101Z,25.59
2023-06-04T11:00:29.151Z,25.49
2023-06-04T11:01:29.228Z,24.98
2023-06-04T11:02:29.148Z,25.35
2023-06-04T11:03:29.088Z,24.56
2023-06-04T11:04:29.079Z,25.33
2023-06-04T11:05:29.333Z,25.43
2023-06-04T11:06:29.120Z,25.43
2023-06-04T11:07:29.089Z,25.74
2023-06-04T11:08:29.000Z,26.34
2023-06-04T11:09:28.975Z,26.03
2023-06-04T11:10:28.999Z,25.73
2023-06-04T11:11:28.997Z,26.23
2023-06-04T11:12:29.002Z,27.21
2023-06-04T11:13:28.999Z,27.59
2023-06-04T11:14:29.021Z,26.67
2023-06-04T11:15:28.972Z,27.18
2023-06-04T11:16:28.991Z,24.82
2023-06-04T11:17:28.949Z,24.73
2023-06-04T11:18:29.195Z,24.63
2023-06-04T11:19:29.022Z,24.55
2023-06-04T11:20:28.871Z,25.13
2023-06-04T11:21:28.888Z,25.72
2023-06-04T11:22:28.909Z,25.23
2023-06-04T11:23:28.886Z,24.73
2023-06-04T11:24:28.858Z,24.55
2023-06-04T11:25:28.882Z,24.74
2023-06-04T11:26:28.821Z,24.74
2023-06-04T11:28:28.795Z,24.97
2023-06-04T11:29:28.795Z,25.15
2023-06-04T11:30:29.108Z,25.35
2023-06-04T11:31:28.901Z,25.73
2023-06-04T11:32:28.854Z,25.21
2023-06-04T11:33:28.773Z,24.43
2023-06-04T11:34:28.774Z,24.71
2023-06-04T11:35:28.734Z,24.11
2023-06-04T11:36:28.724Z,24.21
2023-06-04T11:37:28.763Z,24.41
2023-06-04T11:38:28.689Z,24.32
2023-06-04T11:39:28.687Z,25.90
2023-06-04T11:40:28.685Z,26.51
2023-06-04T11:41:28.673Z,27.12
2023-06-04T11:42:28.986Z,25.71
2023-06-04T11:43:28.701Z,24.11
2023-06-04T11:44:28.625Z,23.82
2023-06-04T11:45:28.636Z,23.41
2023-06-04T11:46:28.623Z,23.41
2023-06-04T11:47:28.651Z,24.20
2023-06-04T11:48:28.870Z,23.88
2023-06-04T11:49:28.966Z,24.20
2023-06-04T11:50:28.701Z,25.34
2023-06-04T11:51:28.561Z,26.13
2023-06-04T11:52:28.534Z,25.91
2023-06-04T11:53:28.541Z,26.19
2023-06-04T11:54:28.550Z,25.98
2023-06-04T11:55:28.554Z,25.76
2023-06-04T11:56:28.558Z,26.13
2023-06-04T11:57:28.527Z,26.61
2023-06-04T11:58:28.589Z,26.59
2023-06-04T11:59:28.486Z,25.70
2023-06-04T12:00:28.495Z,25.01
2023-06-04T12:01:28.621Z,24.87
2023-06-04T12:02:28.823Z,26.24
2023-06-04T12:03:28.507Z,26.42
2023-06-04T12:04:28.466Z,26.70
2023-06-04T12:05:28.437Z,25.88
2023-06-04T12:06:28.422Z,24.90
2023-06-04T12:07:28.502Z,24.49
2023-06-04T12:08:28.477Z,24.41
2023-06-04T12:09:28.683Z,25.18
2023-06-04T12:10:28.395Z,25.07
2023-06-04T12:11:28.406Z,23.40
2023-06-04T12:12:28.397Z,22.82
2023-06-04T12:13:28.450Z,23.90
2023-06-04T12:14:29.509Z,24.11
2023-06-04T12:15:28.324Z,24.82
2023-06-04T12:16:28.611Z,23.96
2023-06-04T12:17:28.328Z,24.67
2023-06-04T12:18:28.352Z,24.79
2023-06-04T12:19:28.336Z,25.09
2023-06-04T12:20:28.292Z,25.01
2023-06-04T12:21:28.276Z,25.91
2023-06-04T12:22:28.271Z,27.40
2023-06-04T12:23:28.320Z,26.78
2023-06-04T12:24:28.267Z,26.48
2023-06-04T12:25:28.287Z,25.37
2023-06-04T12:26:28.231Z,25.65
2023-06-04T12:27:28.219Z,25.23
2023-06-04T12:28:28.174Z,24.92
2023-06-04T12:29:28.478Z,24.44
2023-06-04T12:30:28.178Z,24.93
2023-06-04T12:31:28.270Z,24.65
2023-06-04T12:32:28.201Z,24.85
2023-06-04T12:33:28.148Z,24.55
2023-06-04T12:34:28.131Z,25.13
2023-06-04T12:35:28.103Z,24.93
2023-06-04T12:36:28.406Z,24.93
2023-06-04T12:37:28.138Z,25.34
2023-06-04T12:38:28.099Z,25.24
2023-06-04T12:39:28.091Z,26.13
2023-06-04T12:40:28.098Z,26.93
2023-06-04T12:41:28.092Z,26.34
2023-06-04T12:42:28.048Z,25.93
2023-06-04T12:43:28.107Z,26.13
2023-06-04T12:44:28.088Z,26.51
2023-06-04T12:45:28.105Z,26.51
2023-06-04T12:46:28.022Z,25.81
2023-06-04T12:47:28.096Z,25.23
2023-06-04T12:48:28.287Z,25.93
2023-06-04T12:49:28.023Z,26.21
2023-06-04T12:50:28.031Z,25.92
2023-06-04T12:51:28.052Z,25.90
2023-06-04T12:52:27.968Z,26.03
2023-06-04T12:53:27.956Z,25.35